sensor_id;sensor_type;location;lat;lon;timestamp;P1;durP1;ratioP1;P2;durP2;ratioP2
45970;SDS011;31681;48.982;8.394;2022-08-27T00:01:46;33.20;;;25.83;;
45970;SDS011;31681;48.982;8.394;2022-08-27T00:04:13;33.72;;;24.13;;
45970;SDS011;31681;48.982;8.394;2022-08-27T00:06:39;33.15;;;24.42;;
45970;SDS011;31681;48.982;8.394;2022-08-27T00:09:04;33.72;;;25.33;;
45970;SDS011;31681;48.982;8.394;2022-08-27T00:11:29;31.38;;;23.10;;
45970;SDS011;31681;48.982;8.394;2022-08-27T00:13:55;32.72;;;24.05;;
45970;SDS011;31681;48.982;8.394;2022-08-27T00:16:20;35.83;;;25.35;;
45970;SDS011;31681;48.982;8.394;2022-08-27T00:18:46;35.70;;;25.98;;
45970;SDS011;31681;48.982;8.394;2022-08-27T00:21:12;35.25;;;25.90;;
45970;SDS011;31681;48.982;8.394;2022-08-27T00:23:37;35.40;;;25.85;;
45970;SDS011;31681;48.982;8.394;2022-08-27T00:26:03;33.55;;;26.10;;
45970;SDS011;31681;48.982;8.394;2022-08-27T00:28:29;36.50;;;27.10;;
45970;SDS011;31681;48.982;8.394;2022-08-27T00:30:54;37.80;;;28.00;;
45970;SDS011;31681;48.982;8.394;2022-08-27T00:33:20;38.65;;;27.77;;
45970;SDS011;31681;48.982;8.394;2022-08-27T00:35:45;40.53;;;28.30;;
45970;SDS011;31681;48.982;8.394;2022-08-27T00:38:10;41.30;;;28.63;;
45970;SDS011;31681;48.982;8.394;2022-08-27T00:40:36;41.75;;;28.38;;
45970;SDS011;31681;48.982;8.394;2022-08-27T00:43:01;45.60;;;30.83;;
45970;SDS011;31681;48.982;8.394;2022-08-27T00:45:27;51.08;;;31.17;;
45970;SDS011;31681;48.982;8.394;2022-08-27T00:47:53;43.15;;;28.67;;
45970;SDS011;31681;48.982;8.394;2022-08-27T00:50:22;34.38;;;26.48;;
45970;SDS011;31681;48.982;8.394;2022-08-27T00:52:53;35.47;;;26.20;;
45970;SDS011;31681;48.982;8.394;2022-08-27T00:55:20;42.65;;;29.40;;
45970;SDS011;31681;48.982;8.394;2022-08-27T00:57:48;42.83;;;28.50;;
45970;SDS011;31681;48.982;8.394;2022-08-27T01:00:15;42.33;;;29.33;;
45970;SDS011;31681;48.982;8.394;2022-08-27T01:02:41;42.47;;;29.02;;
45970;SDS011;31681;48.982;8.394;2022-08-27T01:05:08;40.38;;;28.88;;
45970;SDS011;31681;48.982;8.394;2022-08-27T01:07:36;39.97;;;28.83;;
45970;SDS011;31681;48.982;8.394;2022-08-27T01:10:03;49.42;;;31.23;;
45970;SDS011;31681;48.982;8.394;2022-08-27T01:12:29;45.35;;;30.20;;
45970;SDS011;31681;48.982;8.394;2022-08-27T01:14:55;49.70;;;31.80;;
45970;SDS011;31681;48.982;8.394;2022-08-27T01:17:21;45.67;;;33.20;;
45970;SDS011;31681;48.982;8.394;2022-08-27T01:19:54;49.97;;;32.83;;
45970;SDS011;31681;48.982;8.394;2022-08-27T01:24:46;48.93;;;32.17;;
45970;SDS011;31681;48.982;8.394;2022-08-27T01:27:14;52.03;;;33.22;;
45970;SDS011;31681;48.982;8.394;2022-08-27T01:29:41;48.97;;;33.53;;
45970;SDS011;31681;48.982;8.394;2022-08-27T01:32:20;51.20;;;36.00;;
45970;SDS011;31681;48.982;8.394;2022-08-27T01:34:46;58.72;;;36.10;;
45970;SDS011;31681;48.982;8.394;2022-08-27T01:37:12;62.10;;;37.38;;
45970;SDS011;31681;48.982;8.394;2022-08-27T01:39:37;53.55;;;36.70;;
45970;SDS011;31681;48.982;8.394;2022-08-27T01:42:08;55.85;;;37.28;;
45970;SDS011;31681;48.982;8.394;2022-08-27T01:44:40;53.20;;;36.35;;
45970;SDS011;31681;48.982;8.394;2022-08-27T01:47:06;52.15;;;36.95;;
45970;SDS011;31681;48.982;8.394;2022-08-27T01:49:31;53.35;;;36.10;;
45970;SDS011;31681;48.982;8.394;2022-08-27T01:51:57;45.70;;;32.95;;
45970;SDS011;31681;48.982;8.394;2022-08-27T01:54:22;41.58;;;30.42;;
45970;SDS011;31681;48.982;8.394;2022-08-27T01:56:48;41.92;;;30.52;;
45970;SDS011;31681;48.982;8.394;2022-08-27T01:59:13;40.20;;;29.77;;
45970;SDS011;31681;48.982;8.394;2022-08-27T02:01:38;44.90;;;31.88;;
45970;SDS011;31681;48.982;8.394;2022-08-27T02:04:03;42.60;;;33.10;;
45970;SDS011;31681;48.982;8.394;2022-08-27T02:06:29;46.85;;;33.08;;
45970;SDS011;31681;48.982;8.394;2022-08-27T02:08:54;48.70;;;34.78;;
45970;SDS011;31681;48.982;8.394;2022-08-27T02:11:19;47.78;;;36.35;;
45970;SDS011;31681;48.982;8.394;2022-08-27T02:13:44;51.30;;;36.63;;
45970;SDS011;31681;48.982;8.394;2022-08-27T02:16:10;54.85;;;38.45;;
45970;SDS011;31681;48.982;8.394;2022-08-27T02:18:35;59.55;;;38.85;;
45970;SDS011;31681;48.982;8.394;2022-08-27T02:21:02;65.90;;;40.38;;
45970;SDS011;31681;48.982;8.394;2022-08-27T02:23:27;67.25;;;40.00;;
45970;SDS011;31681;48.982;8.394;2022-08-27T02:25:52;67.43;;;41.00;;
45970;SDS011;31681;48.982;8.394;2022-08-27T02:28:18;68.50;;;41.00;;
45970;SDS011;31681;48.982;8.394;2022-08-27T02:30:43;67.22;;;39.97;;
45970;SDS011;31681;48.982;8.394;2022-08-27T02:33:08;68.18;;;40.83;;
45970;SDS011;31681;48.982;8.394;2022-08-27T02:35:34;66.75;;;40.33;;
45970;SDS011;31681;48.982;8.394;2022-08-27T02:38:02;63.85;;;37.63;;
45970;SDS011;31681;48.982;8.394;2022-08-27T02:40:28;64.63;;;38.50;;
45970;SDS011;31681;48.982;8.394;2022-08-27T02:42:53;63.80;;;38.25;;
45970;SDS011;31681;48.982;8.394;2022-08-27T02:45:19;61.10;;;36.38;;
45970;SDS011;31681;48.982;8.394;2022-08-27T02:47:44;64.75;;;39.38;;
45970;SDS011;31681;48.982;8.394;2022-08-27T02:50:10;66.63;;;38.75;;
45970;SDS011;31681;48.982;8.394;2022-08-27T02:52:36;65.80;;;39.20;;
45970;SDS011;31681;48.982;8.394;2022-08-27T02:55:01;73.68;;;41.20;;
45970;SDS011;31681;48.982;8.394;2022-08-27T02:57:26;66.80;;;38.58;;
45970;SDS011;31681;48.982;8.394;2022-08-27T02:59:52;65.70;;;38.10;;
45970;SDS011;31681;48.982;8.394;2022-08-27T03:02:17;58.10;;;36.33;;
45970;SDS011;31681;48.982;8.394;2022-08-27T03:04:44;57.85;;;36.80;;
45970;SDS011;31681;48.982;8.394;2022-08-27T03:07:09;58.85;;;35.33;;
45970;SDS011;31681;48.982;8.394;2022-08-27T03:09:35;55.35;;;35.30;;
45970;SDS011;31681;48.982;8.394;2022-08-27T03:12:00;58.17;;;35.92;;
45970;SDS011;31681;48.982;8.394;2022-08-27T03:14:26;54.28;;;34.85;;
45970;SDS011;31681;48.982;8.394;2022-08-27T03:16:51;58.40;;;35.70;;
45970;SDS011;31681;48.982;8.394;2022-08-27T03:19:16;54.35;;;36.13;;
45970;SDS011;31681;48.982;8.394;2022-08-27T03:21:42;54.72;;;35.28;;
45970;SDS011;31681;48.982;8.394;2022-08-27T03:24:07;60.53;;;36.70;;
45970;SDS011;31681;48.982;8.394;2022-08-27T03:26:33;62.42;;;37.83;;
45970;SDS011;31681;48.982;8.394;2022-08-27T03:28:59;67.80;;;38.50;;
45970;SDS011;31681;48.982;8.394;2022-08-27T03:31:26;66.20;;;38.47;;
45970;SDS011;31681;48.982;8.394;2022-08-27T03:33:55;65.88;;;38.67;;
45970;SDS011;31681;48.982;8.394;2022-08-27T03:36:21;64.00;;;38.30;;
45970;SDS011;31681;48.982;8.394;2022-08-27T03:38:46;64.85;;;38.33;;
45970;SDS011;31681;48.982;8.394;2022-08-27T03:41:11;59.90;;;37.30;;
45970;SDS011;31681;48.982;8.394;2022-08-27T03:43:38;59.38;;;36.22;;
45970;SDS011;31681;48.982;8.394;2022-08-27T03:46:03;56.90;;;37.38;;
45970;SDS011;31681;48.982;8.394;2022-08-27T03:48:30;54.53;;;35.45;;
45970;SDS011;31681;48.982;8.394;2022-08-27T03:50:55;56.25;;;36.33;;
45970;SDS011;31681;48.982;8.394;2022-08-27T03:53:21;54.67;;;33.70;;
45970;SDS011;31681;48.982;8.394;2022-08-27T03:55:46;49.83;;;34.80;;
45970;SDS011;31681;48.982;8.394;2022-08-27T03:58:11;47.70;;;32.70;;
45970;SDS011;31681;48.982;8.394;2022-08-27T04:00:38;48.75;;;33.20;;
45970;SDS011;31681;48.982;8.394;2022-08-27T04:03:03;50.25;;;31.60;;
45970;SDS011;31681;48.982;8.394;2022-08-27T04:05:29;49.53;;;34.22;;
45970;SDS011;31681;48.982;8.394;2022-08-27T04:07:55;51.55;;;34.22;;
45970;SDS011;31681;48.982;8.394;2022-08-27T04:10:20;48.75;;;32.72;;
45970;SDS011;31681;48.982;8.394;2022-08-27T04:12:45;55.30;;;35.65;;
45970;SDS011;31681;48.982;8.394;2022-08-27T04:15:11;55.90;;;36.90;;
45970;SDS011;31681;48.982;8.394;2022-08-27T04:17:37;55.00;;;37.35;;
45970;SDS011;31681;48.982;8.394;2022-08-27T04:20:03;59.25;;;37.10;;
45970;SDS011;31681;48.982;8.394;2022-08-27T04:22:28;67.10;;;38.00;;
45970;SDS011;31681;48.982;8.394;2022-08-27T04:24:54;66.45;;;39.05;;
45970;SDS011;31681;48.982;8.394;2022-08-27T04:27:19;67.70;;;41.75;;
45970;SDS011;31681;48.982;8.394;2022-08-27T04:29:45;67.47;;;41.90;;
45970;SDS011;31681;48.982;8.394;2022-08-27T04:32:10;63.83;;;42.67;;
45970;SDS011;31681;48.982;8.394;2022-08-27T04:34:36;70.38;;;41.78;;
45970;SDS011;31681;48.982;8.394;2022-08-27T04:37:01;70.15;;;42.28;;
45970;SDS011;31681;48.982;8.394;2022-08-27T04:39:26;72.88;;;45.03;;
45970;SDS011;31681;48.982;8.394;2022-08-27T04:41:53;74.90;;;46.97;;
45970;SDS011;31681;48.982;8.394;2022-08-27T04:44:20;82.72;;;46.80;;
45970;SDS011;31681;48.982;8.394;2022-08-27T04:46:45;78.40;;;46.03;;
45970;SDS011;31681;48.982;8.394;2022-08-27T04:49:12;83.45;;;46.38;;
45970;SDS011;31681;48.982;8.394;2022-08-27T04:51:38;79.15;;;45.13;;
45970;SDS011;31681;48.982;8.394;2022-08-27T04:54:04;84.90;;;45.58;;
45970;SDS011;31681;48.982;8.394;2022-08-27T04:56:30;71.97;;;43.25;;
45970;SDS011;31681;48.982;8.394;2022-08-27T04:58:56;70.47;;;42.95;;
45970;SDS011;31681;48.982;8.394;2022-08-27T05:01:22;68.15;;;43.10;;
45970;SDS011;31681;48.982;8.394;2022-08-27T05:03:48;66.53;;;41.20;;
45970;SDS011;31681;48.982;8.394;2022-08-27T05:06:13;65.55;;;42.90;;
45970;SDS011;31681;48.982;8.394;2022-08-27T05:08:39;65.18;;;41.70;;
45970;SDS011;31681;48.982;8.394;2022-08-27T05:11:08;56.40;;;38.30;;
45970;SDS011;31681;48.982;8.394;2022-08-27T05:13:34;53.80;;;38.15;;
45970;SDS011;31681;48.982;8.394;2022-08-27T05:16:01;56.33;;;37.03;;
45970;SDS011;31681;48.982;8.394;2022-08-27T05:18:27;54.92;;;38.38;;
45970;SDS011;31681;48.982;8.394;2022-08-27T05:20:52;52.35;;;36.10;;
45970;SDS011;31681;48.982;8.394;2022-08-27T05:23:18;55.47;;;37.45;;
45970;SDS011;31681;48.982;8.394;2022-08-27T05:25:44;52.70;;;37.33;;
45970;SDS011;31681;48.982;8.394;2022-08-27T05:28:10;54.35;;;35.50;;
45970;SDS011;31681;48.982;8.394;2022-08-27T05:30:36;50.83;;;34.22;;
45970;SDS011;31681;48.982;8.394;2022-08-27T05:33:01;51.78;;;34.92;;
45970;SDS011;31681;48.982;8.394;2022-08-27T05:35:26;53.83;;;37.25;;
45970;SDS011;31681;48.982;8.394;2022-08-27T05:37:52;48.42;;;35.42;;
45970;SDS011;31681;48.982;8.394;2022-08-27T05:40:18;53.42;;;37.08;;
45970;SDS011;31681;48.982;8.394;2022-08-27T05:42:43;51.35;;;35.50;;
45970;SDS011;31681;48.982;8.394;2022-08-27T05:45:08;47.67;;;35.28;;
45970;SDS011;31681;48.982;8.394;2022-08-27T05:47:34;50.55;;;35.72;;
45970;SDS011;31681;48.982;8.394;2022-08-27T05:49:59;47.37;;;34.10;;
45970;SDS011;31681;48.982;8.394;2022-08-27T05:52:24;54.27;;;37.70;;
45970;SDS011;31681;48.982;8.394;2022-08-27T05:54:50;50.45;;;36.15;;
45970;SDS011;31681;48.982;8.394;2022-08-27T05:57:16;54.63;;;35.95;;
45970;SDS011;31681;48.982;8.394;2022-08-27T05:59:41;55.90;;;36.38;;
45970;SDS011;31681;48.982;8.394;2022-08-27T06:02:25;54.78;;;35.72;;
45970;SDS011;31681;48.982;8.394;2022-08-27T06:04:50;57.13;;;36.92;;
45970;SDS011;31681;48.982;8.394;2022-08-27T06:07:18;51.97;;;35.53;;
45970;SDS011;31681;48.982;8.394;2022-08-27T06:09:43;54.38;;;36.33;;
45970;SDS011;31681;48.982;8.394;2022-08-27T06:12:08;49.05;;;34.67;;
45970;SDS011;31681;48.982;8.394;2022-08-27T06:14:34;52.03;;;34.35;;
45970;SDS011;31681;48.982;8.394;2022-08-27T06:17:00;54.47;;;35.42;;
45970;SDS011;31681;48.982;8.394;2022-08-27T06:19:25;55.50;;;36.95;;
45970;SDS011;31681;48.982;8.394;2022-08-27T06:21:51;54.10;;;37.78;;
45970;SDS011;31681;48.982;8.394;2022-08-27T06:24:16;56.17;;;36.28;;
45970;SDS011;31681;48.982;8.394;2022-08-27T06:26:42;51.47;;;36.15;;
45970;SDS011;31681;48.982;8.394;2022-08-27T06:29:09;53.95;;;36.40;;
45970;SDS011;31681;48.982;8.394;2022-08-27T06:31:34;58.72;;;37.60;;
45970;SDS011;31681;48.982;8.394;2022-08-27T06:34:00;57.22;;;37.20;;
45970;SDS011;31681;48.982;8.394;2022-08-27T06:36:26;55.15;;;37.17;;
45970;SDS011;31681;48.982;8.394;2022-08-27T06:38:53;51.40;;;34.28;;
45970;SDS011;31681;48.982;8.394;2022-08-27T06:41:20;54.78;;;36.47;;
45970;SDS011;31681;48.982;8.394;2022-08-27T06:43:46;62.65;;;39.08;;
45970;SDS011;31681;48.982;8.394;2022-08-27T06:46:13;66.35;;;40.92;;
45970;SDS011;31681;48.982;8.394;2022-08-27T06:48:38;67.57;;;39.85;;
45970;SDS011;31681;48.982;8.394;2022-08-27T06:51:11;60.08;;;36.78;;
45970;SDS011;31681;48.982;8.394;2022-08-27T06:53:37;60.85;;;38.10;;
45970;SDS011;31681;48.982;8.394;2022-08-27T06:56:03;63.55;;;38.80;;
45970;SDS011;31681;48.982;8.394;2022-08-27T06:58:29;57.13;;;36.03;;
45970;SDS011;31681;48.982;8.394;2022-08-27T07:00:54;62.60;;;37.17;;
45970;SDS011;31681;48.982;8.394;2022-08-27T07:03:19;61.80;;;38.13;;
45970;SDS011;31681;48.982;8.394;2022-08-27T07:05:45;66.88;;;38.85;;
45970;SDS011;31681;48.982;8.394;2022-08-27T07:08:10;67.88;;;38.95;;
45970;SDS011;31681;48.982;8.394;2022-08-27T07:10:36;64.65;;;38.50;;
45970;SDS011;31681;48.982;8.394;2022-08-27T07:13:01;70.63;;;41.22;;
45970;SDS011;31681;48.982;8.394;2022-08-27T07:15:26;67.32;;;40.08;;
45970;SDS011;31681;48.982;8.394;2022-08-27T07:17:52;61.95;;;38.58;;
45970;SDS011;31681;48.982;8.394;2022-08-27T07:20:18;66.78;;;40.20;;
45970;SDS011;31681;48.982;8.394;2022-08-27T07:22:44;70.20;;;40.83;;
45970;SDS011;31681;48.982;8.394;2022-08-27T07:25:11;65.65;;;39.58;;
45970;SDS011;31681;48.982;8.394;2022-08-27T07:27:40;73.32;;;42.28;;
45970;SDS011;31681;48.982;8.394;2022-08-27T07:30:07;66.53;;;40.78;;
45970;SDS011;31681;48.982;8.394;2022-08-27T07:32:32;61.65;;;38.92;;
45970;SDS011;31681;48.982;8.394;2022-08-27T07:34:58;60.53;;;38.25;;
45970;SDS011;31681;48.982;8.394;2022-08-27T07:37:23;62.65;;;37.13;;
45970;SDS011;31681;48.982;8.394;2022-08-27T07:39:48;58.38;;;35.95;;
45970;SDS011;31681;48.982;8.394;2022-08-27T07:42:13;54.38;;;35.80;;
45970;SDS011;31681;48.982;8.394;2022-08-27T07:44:57;56.63;;;37.30;;
45970;SDS011;31681;48.982;8.394;2022-08-27T07:47:23;43.58;;;31.70;;
45970;SDS011;31681;48.982;8.394;2022-08-27T07:49:48;43.30;;;31.65;;
45970;SDS011;31681;48.982;8.394;2022-08-27T07:52:14;44.85;;;32.42;;
45970;SDS011;31681;48.982;8.394;2022-08-27T07:54:40;43.17;;;31.83;;
45970;SDS011;31681;48.982;8.394;2022-08-27T07:57:05;40.50;;;30.48;;
45970;SDS011;31681;48.982;8.394;2022-08-27T07:59:30;41.75;;;29.35;;
45970;SDS011;31681;48.982;8.394;2022-08-27T08:01:55;40.42;;;27.67;;
45970;SDS011;31681;48.982;8.394;2022-08-27T08:04:21;39.17;;;28.73;;
45970;SDS011;31681;48.982;8.394;2022-08-27T08:06:47;33.90;;;26.52;;
45970;SDS011;31681;48.982;8.394;2022-08-27T08:09:12;36.35;;;27.30;;
45970;SDS011;31681;48.982;8.394;2022-08-27T08:11:37;36.88;;;27.85;;
45970;SDS011;31681;48.982;8.394;2022-08-27T08:14:03;36.38;;;28.67;;
45970;SDS011;31681;48.982;8.394;2022-08-27T08:16:28;34.53;;;27.38;;
45970;SDS011;31681;48.982;8.394;2022-08-27T08:18:53;36.60;;;28.35;;
45970;SDS011;31681;48.982;8.394;2022-08-27T08:21:19;38.88;;;29.25;;
45970;SDS011;31681;48.982;8.394;2022-08-27T08:23:44;35.40;;;28.23;;
45970;SDS011;31681;48.982;8.394;2022-08-27T08:26:11;34.17;;;26.45;;
45970;SDS011;31681;48.982;8.394;2022-08-27T08:28:36;36.17;;;28.67;;
45970;SDS011;31681;48.982;8.394;2022-08-27T08:31:02;38.40;;;28.45;;
45970;SDS011;31681;48.982;8.394;2022-08-27T08:33:28;47.13;;;32.08;;
45970;SDS011;31681;48.982;8.394;2022-08-27T08:36:00;40.42;;;29.90;;
45970;SDS011;31681;48.982;8.394;2022-08-27T08:38:25;43.05;;;31.55;;
45970;SDS011;31681;48.982;8.394;2022-08-27T08:40:52;42.15;;;31.02;;
45970;SDS011;31681;48.982;8.394;2022-08-27T08:43:41;46.20;;;31.83;;
45970;SDS011;31681;48.982;8.394;2022-08-27T08:46:15;40.15;;;29.75;;
45970;SDS011;31681;48.982;8.394;2022-08-27T08:48:47;45.58;;;32.80;;
45970;SDS011;31681;48.982;8.394;2022-08-27T08:51:18;43.90;;;30.85;;
45970;SDS011;31681;48.982;8.394;2022-08-27T08:53:57;44.20;;;30.73;;
45970;SDS011;31681;48.982;8.394;2022-08-27T08:56:30;44.45;;;32.30;;
45970;SDS011;31681;48.982;8.394;2022-08-27T08:59:13;45.55;;;30.00;;
45970;SDS011;31681;48.982;8.394;2022-08-27T09:01:40;50.25;;;32.72;;
45970;SDS011;31681;48.982;8.394;2022-08-27T09:04:08;49.70;;;33.40;;
45970;SDS011;31681;48.982;8.394;2022-08-27T09:14:35;64.57;;;37.00;;
45970;SDS011;31681;48.982;8.394;2022-08-27T09:17:02;78.35;;;38.80;;
45970;SDS011;31681;48.982;8.394;2022-08-27T09:19:27;74.65;;;43.70;;
45970;SDS011;31681;48.982;8.394;2022-08-27T09:21:55;90.82;;;46.17;;
45970;SDS011;31681;48.982;8.394;2022-08-27T09:24:26;78.03;;;46.70;;
45970;SDS011;31681;48.982;8.394;2022-08-27T09:26:53;84.80;;;44.08;;
45970;SDS011;31681;48.982;8.394;2022-08-27T09:29:18;90.53;;;48.38;;
45970;SDS011;31681;48.982;8.394;2022-08-27T09:32:00;91.47;;;47.08;;
45970;SDS011;31681;48.982;8.394;2022-08-27T09:34:32;86.38;;;45.63;;
45970;SDS011;31681;48.982;8.394;2022-08-27T09:40:13;79.57;;;45.25;;
45970;SDS011;31681;48.982;8.394;2022-08-27T09:44:46;80.32;;;43.78;;
45970;SDS011;31681;48.982;8.394;2022-08-27T09:47:12;84.32;;;46.13;;
45970;SDS011;31681;48.982;8.394;2022-08-27T09:49:39;81.53;;;44.47;;
45970;SDS011;31681;48.982;8.394;2022-08-27T09:52:05;82.72;;;43.08;;
45970;SDS011;31681;48.982;8.394;2022-08-27T09:54:36;81.78;;;45.53;;
45970;SDS011;31681;48.982;8.394;2022-08-27T09:57:02;84.20;;;45.58;;
45970;SDS011;31681;48.982;8.394;2022-08-27T09:59:34;87.53;;;45.83;;
45970;SDS011;31681;48.982;8.394;2022-08-27T10:04:39;90.90;;;48.25;;
45970;SDS011;31681;48.982;8.394;2022-08-27T10:07:16;82.80;;;46.38;;
45970;SDS011;31681;48.982;8.394;2022-08-27T10:09:45;99.07;;;51.08;;
45970;SDS011;31681;48.982;8.394;2022-08-27T10:14:49;86.53;;;47.78;;
45970;SDS011;31681;48.982;8.394;2022-08-27T10:17:22;97.82;;;48.63;;
45970;SDS011;31681;48.982;8.394;2022-08-27T10:20:01;92.68;;;48.05;;
45970;SDS011;31681;48.982;8.394;2022-08-27T10:27:56;89.93;;;48.40;;
45970;SDS011;31681;48.982;8.394;2022-08-27T10:30:57;87.10;;;47.55;;
45970;SDS011;31681;48.982;8.394;2022-08-27T10:33:26;94.03;;;49.65;;
45970;SDS011;31681;48.982;8.394;2022-08-27T10:48:34;89.93;;;47.45;;
45970;SDS011;31681;48.982;8.394;2022-08-27T10:56:05;84.18;;;47.35;;
45970;SDS011;31681;48.982;8.394;2022-08-27T11:01:21;103.88;;;49.67;;
45970;SDS011;31681;48.982;8.394;2022-08-27T11:06:21;107.45;;;51.55;;
45970;SDS011;31681;48.982;8.394;2022-08-27T11:08:59;107.47;;;51.10;;
45970;SDS011;31681;48.982;8.394;2022-08-27T11:14:52;89.90;;;48.25;;
45970;SDS011;31681;48.982;8.394;2022-08-27T11:17:00;91.57;;;48.90;;
45970;SDS011;31681;48.982;8.394;2022-08-27T11:19:30;92.93;;;49.58;;
45970;SDS011;31681;48.982;8.394;2022-08-27T11:22:03;83.63;;;44.85;;
45970;SDS011;31681;48.982;8.394;2022-08-27T11:27:00;83.97;;;47.28;;
45970;SDS011;31681;48.982;8.394;2022-08-27T11:29:29;82.97;;;45.65;;
45970;SDS011;31681;48.982;8.394;2022-08-27T11:34:24;94.60;;;47.22;;
45970;SDS011;31681;48.982;8.394;2022-08-27T11:40:00;77.35;;;43.70;;
45970;SDS011;31681;48.982;8.394;2022-08-27T11:42:27;82.30;;;44.33;;
45970;SDS011;31681;48.982;8.394;2022-08-27T11:45:03;68.28;;;40.33;;
45970;SDS011;31681;48.982;8.394;2022-08-27T11:47:29;72.85;;;42.97;;
45970;SDS011;31681;48.982;8.394;2022-08-27T11:49:55;69.20;;;42.33;;
45970;SDS011;31681;48.982;8.394;2022-08-27T11:52:28;75.35;;;41.85;;
45970;SDS011;31681;48.982;8.394;2022-08-27T11:54:56;77.32;;;42.70;;
45970;SDS011;31681;48.982;8.394;2022-08-27T11:59:51;73.03;;;41.92;;
45970;SDS011;31681;48.982;8.394;2022-08-27T12:04:41;70.55;;;40.00;;
45970;SDS011;31681;48.982;8.394;2022-08-27T12:12:38;68.97;;;41.42;;
45970;SDS011;31681;48.982;8.394;2022-08-27T12:15:17;65.63;;;40.40;;
45970;SDS011;31681;48.982;8.394;2022-08-27T12:17:53;68.30;;;41.55;;
45970;SDS011;31681;48.982;8.394;2022-08-27T12:23:11;64.05;;;40.03;;
45970;SDS011;31681;48.982;8.394;2022-08-27T12:26:00;69.03;;;40.40;;
45970;SDS011;31681;48.982;8.394;2022-08-27T12:28:37;60.25;;;38.83;;
45970;SDS011;31681;48.982;8.394;2022-08-27T12:31:02;61.88;;;39.75;;
45970;SDS011;31681;48.982;8.394;2022-08-27T12:33:40;54.55;;;37.45;;
45970;SDS011;31681;48.982;8.394;2022-08-27T12:36:18;55.85;;;36.95;;
45970;SDS011;31681;48.982;8.394;2022-08-27T12:38:49;58.25;;;38.63;;
45970;SDS011;31681;48.982;8.394;2022-08-27T12:41:30;58.55;;;37.63;;
45970;SDS011;31681;48.982;8.394;2022-08-27T12:44:04;59.10;;;38.58;;
45970;SDS011;31681;48.982;8.394;2022-08-27T12:46:29;53.88;;;36.13;;
45970;SDS011;31681;48.982;8.394;2022-08-27T12:48:56;51.60;;;36.40;;
45970;SDS011;31681;48.982;8.394;2022-08-27T12:59:09;50.85;;;36.05;;
45970;SDS011;31681;48.982;8.394;2022-08-27T13:04:23;49.90;;;34.35;;
45970;SDS011;31681;48.982;8.394;2022-08-27T13:06:50;52.15;;;37.00;;
45970;SDS011;31681;48.982;8.394;2022-08-27T13:09:15;51.08;;;34.55;;
45970;SDS011;31681;48.982;8.394;2022-08-27T13:11:45;46.53;;;33.85;;
45970;SDS011;31681;48.982;8.394;2022-08-27T13:14:15;52.30;;;36.22;;
45970;SDS011;31681;48.982;8.394;2022-08-27T13:16:52;59.67;;;36.80;;
45970;SDS011;31681;48.982;8.394;2022-08-27T13:21:47;59.60;;;38.80;;
45970;SDS011;31681;48.982;8.394;2022-08-27T13:24:13;55.47;;;37.67;;
45970;SDS011;31681;48.982;8.394;2022-08-27T13:26:46;66.10;;;41.40;;
45970;SDS011;31681;48.982;8.394;2022-08-27T13:29:11;63.63;;;41.63;;
45970;SDS011;31681;48.982;8.394;2022-08-27T13:31:37;63.53;;;41.75;;
45970;SDS011;31681;48.982;8.394;2022-08-27T13:34:03;57.88;;;38.25;;
45970;SDS011;31681;48.982;8.394;2022-08-27T13:36:30;55.65;;;37.60;;
45970;SDS011;31681;48.982;8.394;2022-08-27T13:38:56;59.33;;;37.08;;
45970;SDS011;31681;48.982;8.394;2022-08-27T13:41:43;54.63;;;35.78;;
45970;SDS011;31681;48.982;8.394;2022-08-27T13:44:10;46.72;;;34.92;;
45970;SDS011;31681;48.982;8.394;2022-08-27T13:46:41;52.33;;;36.30;;
45970;SDS011;31681;48.982;8.394;2022-08-27T13:49:11;54.03;;;36.63;;
45970;SDS011;31681;48.982;8.394;2022-08-27T13:51:38;52.30;;;35.60;;
45970;SDS011;31681;48.982;8.394;2022-08-27T13:54:07;53.30;;;36.33;;
45970;SDS011;31681;48.982;8.394;2022-08-27T13:59:13;44.00;;;34.30;;
45970;SDS011;31681;48.982;8.394;2022-08-27T14:01:53;47.47;;;34.58;;
45970;SDS011;31681;48.982;8.394;2022-08-27T14:04:20;51.92;;;35.65;;
45970;SDS011;31681;48.982;8.394;2022-08-27T14:06:45;45.03;;;34.47;;
45970;SDS011;31681;48.982;8.394;2022-08-27T14:09:25;46.38;;;33.75;;
45970;SDS011;31681;48.982;8.394;2022-08-27T14:12:01;43.17;;;33.88;;
45970;SDS011;31681;48.982;8.394;2022-08-27T14:14:27;46.00;;;34.17;;
45970;SDS011;31681;48.982;8.394;2022-08-27T14:16:57;46.47;;;34.28;;
45970;SDS011;31681;48.982;8.394;2022-08-27T14:19:32;45.45;;;33.97;;
45970;SDS011;31681;48.982;8.394;2022-08-27T14:21:57;47.05;;;34.72;;
45970;SDS011;31681;48.982;8.394;2022-08-27T14:24:24;47.88;;;33.70;;
45970;SDS011;31681;48.982;8.394;2022-08-27T14:26:50;46.65;;;34.85;;
45970;SDS011;31681;48.982;8.394;2022-08-27T14:29:15;49.42;;;35.35;;
45970;SDS011;31681;48.982;8.394;2022-08-27T14:31:49;50.13;;;35.53;;
45970;SDS011;31681;48.982;8.394;2022-08-27T14:34:14;47.95;;;35.00;;
45970;SDS011;31681;48.982;8.394;2022-08-27T14:36:40;49.13;;;36.17;;
45970;SDS011;31681;48.982;8.394;2022-08-27T14:39:06;46.00;;;33.85;;
45970;SDS011;31681;48.982;8.394;2022-08-27T14:41:32;41.20;;;31.42;;
45970;SDS011;31681;48.982;8.394;2022-08-27T14:43:58;44.50;;;32.30;;
45970;SDS011;31681;48.982;8.394;2022-08-27T14:46:24;36.00;;;29.23;;
45970;SDS011;31681;48.982;8.394;2022-08-27T14:48:50;39.40;;;30.83;;
45970;SDS011;31681;48.982;8.394;2022-08-27T14:51:18;38.85;;;29.70;;
45970;SDS011;31681;48.982;8.394;2022-08-27T14:53:44;42.60;;;31.52;;
45970;SDS011;31681;48.982;8.394;2022-08-27T14:56:10;37.00;;;27.58;;
45970;SDS011;31681;48.982;8.394;2022-08-27T14:58:35;29.25;;;26.02;;
45970;SDS011;31681;48.982;8.394;2022-08-27T15:01:01;31.83;;;24.50;;
45970;SDS011;31681;48.982;8.394;2022-08-27T15:06:16;35.45;;;26.85;;
45970;SDS011;31681;48.982;8.394;2022-08-27T15:08:42;28.92;;;24.25;;
45970;SDS011;31681;48.982;8.394;2022-08-27T15:11:15;28.75;;;21.52;;
45970;SDS011;31681;48.982;8.394;2022-08-27T15:13:41;30.00;;;24.20;;
45970;SDS011;31681;48.982;8.394;2022-08-27T15:16:06;29.27;;;23.85;;
45970;SDS011;31681;48.982;8.394;2022-08-27T15:18:32;31.05;;;22.48;;
45970;SDS011;31681;48.982;8.394;2022-08-27T15:20:57;29.45;;;22.58;;
45970;SDS011;31681;48.982;8.394;2022-08-27T15:23:23;31.92;;;21.88;;
45970;SDS011;31681;48.982;8.394;2022-08-27T15:25:48;25.00;;;21.50;;
45970;SDS011;31681;48.982;8.394;2022-08-27T15:28:13;25.08;;;20.58;;
45970;SDS011;31681;48.982;8.394;2022-08-27T15:30:39;25.60;;;19.77;;
45970;SDS011;31681;48.982;8.394;2022-08-27T15:33:04;25.15;;;19.55;;
45970;SDS011;31681;48.982;8.394;2022-08-27T15:35:30;23.10;;;18.35;;
45970;SDS011;31681;48.982;8.394;2022-08-27T15:37:55;23.30;;;18.17;;
45970;SDS011;31681;48.982;8.394;2022-08-27T15:40:21;21.52;;;17.33;;
45970;SDS011;31681;48.982;8.394;2022-08-27T15:42:49;24.20;;;18.10;;
45970;SDS011;31681;48.982;8.394;2022-08-27T15:45:16;25.02;;;19.48;;
45970;SDS011;31681;48.982;8.394;2022-08-27T15:47:45;21.08;;;17.70;;
45970;SDS011;31681;48.982;8.394;2022-08-27T15:50:10;26.98;;;19.88;;
45970;SDS011;31681;48.982;8.394;2022-08-27T15:52:35;21.00;;;17.83;;
45970;SDS011;31681;48.982;8.394;2022-08-27T15:55:01;23.55;;;19.08;;